AirNav   Bose ProFlight Series 2 Headset
 
 353 users online  

6NK3 North Shore University Hospital Nr 2 Heliport
Manhasset, New York, USA

GOING TO MANHASSET?


FAA INFORMATION EFFECTIVE 26 MARCH 2020

Location

FAA Identifier: 6NK3
Lat/Long: 40-46-30.7700N 073-41-59.4100W
40-46.512833N 073-41.990167W
40.7752139,-73.6998361
(estimated)
Elevation: 153 ft. / 47 m (estimated)
Variation: 13W (1995)
From city: 1 mile S of MANHASSET, NY
Time zone: UTC -4 (UTC -5 during Standard Time)
Zip code: 11020

Heliport Operations

Heliport use: Private use. Permission required prior to landing
Activation date: 02/1999
Control tower: no
ARTCC: NEW YORK CENTER
FSS: NEW YORK FLIGHT SERVICE STATION
Attendance: CONTINUOUS
Wind indicator: yes
Segmented circle: no
Lights: SS-SR

Heliport Communications

WX ASOS at LGA (8 nm W): PHONE 718-672-6317
WX ASOS at JFK (9 nm SW): 128.725 (718-656-0956)
WX ASOS at FRG (13 nm E): PHONE 631-752-8129
WX AWOS-3PT at JRB (15 nm W): 128.175 (212-425-1534)
WX ASOS at TEB (17 nm W): 132.025 (201-393-0855)
WX ASOS at HPN (18 nm N): PHONE 914-288-0216

Nearby radio navigation aids

VOR radial/distance  VOR name  Freq  Var
LGAr106/7.7LA GUARDIA VOR/DME113.1012W
JFKr033/9.1KENNEDY VOR/DME115.9012W
CRIr053/13.2CANARSIE VOR/DME112.3011W
TEBr116/17.0TETERBORO VOR/DME108.4011W
DPKr279/18.0DEER PARK VOR/DME117.7012W
CMKr202/30.8CARMEL VOR/DME116.6012W
COLr048/34.8COLTS NECK VOR/DME115.4011W
BDRr240/34.8BRIDGEPORT VOR/DME108.8012W

 
NDB name  Hdg/Dist  Freq  Var  ID
FRIKK284/9.940714WFR ..-. .-.
BABYLON307/15.627514WBBN -... -... -.
CHATHAM099/33.225413WCAT -.-. .- -

Heliport Services

Runway Information

Helipad H1

Dimensions: 60 x 60 ft. / 18 x 18 m
Surface: asphalt
Runway edge lights: FLD
Latitude: 40-46.512833N
Longitude: 073-41.990167W
Elevation: 153.0 ft.
Traffic pattern: leftleft

Heliport Ownership and Management from official FAA records

Ownership: Privately-owned
Owner: NORTH SHORE UNIVERSITY HOSPITAL
300 COMMUNITY DR
MANHASSET, NY 11030
Phone (516) 562-4235
Manager: MANUEL SANCHEZ
300 COMMUNITY DR
MANHASSET, NY 11030
Phone (516) 562-4235

Additional Remarks

FOR CD CTC NEW YORK APCH AT 516-683-2962.

Instrument Procedures

There are no published instrument procedures at 6NK3.

Some nearby airports with instrument procedures:

KLGA - LaGuardia Airport (8 nm W)
KJFK - John F Kennedy International Airport (9 nm SW)
6N5 - East 34th Street Heliport (13 nm W)
KFRG - Republic Airport (13 nm E)
KJRA - West 30th St Heliport (14 nm W)
KJRB - Downtown Manhattan/Wall Street Heliport (15 nm W)
KTEB - Teterboro Airport (17 nm W)
KHPN - Westchester County Airport (18 nm N)
 
Loc | Ops | Rwys | IFR | FBO | Links
Com | Nav | Svcs | Stats | Notes
Area around 6NK3 (North Shore University Hospital Nr 2 Heliport)
 
Road maps at: MapQuest Bing Google
 
Aerial photo
No photo
 
Sectional chart

 
Airport distance calculator
Flying to North Shore University Hospital Nr 2 Heliport? Find the distance to fly.

From to 6NK3

Sunrise and sunset
Times for 30-Mar-2020
 Local
(UTC-4)
 Zulu
(UTC)
Morning civil twilight06:1310:13
Sunrise06:4110:41
Sunset19:1723:17
Evening civil twilight19:4523:45

Current date and time
Zulu (UTC)  30-Mar-2020 06:39:06
Local (UTC-4)  30-Mar-2020 02:39:06
 
METAR
KLGA 
8nm W 
300551Z 03005KT 6SM -DZ BR OVC007 09/07 A2991 RMK AO2 SLP127 P0000 60000 T00890072 10089 20072 51011
KJFK 
9nm S 
300551Z 01009KT 10SM OVC007 08/08 A2991 RMK AO2 SLP129 T00830083 10083 20072 53015
KNYC 
12nm W 
300551Z AUTO VRB04KT 9SM OVC007 08/07 A2993 RMK AO2 SLP126 T00830072 10083 20072 51012
KFRG 
13nm E 
300553Z AUTO 03012G19KT 10SM OVC007 07/05 A2991 RMK AO2 SLP128 T00720050 10089 20072 53018
KJRB 
15nm W 
300556Z AUTO 07005KT 10SM OVC010 09/08 A2991 RMK AO2 SLP128 T00890078 10089 20078 51012
KTEB 
17nm W 
300551Z 04003KT 6SM BR OVC013 08/07 A2990 RMK AO2 SLP124 T00830067 10083 20078 50008
KHPN 
17nm N 
300556Z 02005KT 10SM OVC007 07/05 A2990 RMK AO2 SLP129 60000 T00670050 10078 20067 53011
TAF
KLGA 
8nm W 
300538Z 3006/3112 03007KT P6SM OVC007 TEMPO 3007/3011 5SM -DZ BR FM301300 04006KT P6SM SCT007 OVC020 FM301700 VRB04KT P6SM VCSH SCT025 OVC050 FM302200 26006KT P6SM VCSH SCT030 OVC050 FM310100 33008KT P6SM VCSH SCT025 OVC040 FM310500 02008KT P6SM BKN025 FM310800 04010KT P6SM VCSH SCT015 OVC025
KJFK 
9nm S 
300538Z 3006/3112 02007KT P6SM OVC006 TEMPO 3007/3011 5SM -DZ BR FM301400 17005KT P6SM SCT007 OVC020 FM301700 VRB04KT P6SM VCSH SCT025 OVC050 FM302300 28007KT P6SM VCSH SCT030 OVC050 FM310100 33010KT P6SM VCSH SCT025 OVC040 FM310600 01008KT P6SM VCSH BKN025 FM310800 04010KT P6SM VCSH SCT015 OVC025
KTEB 
17nm W 
300538Z 3006/3112 02005KT P6SM OVC006 TEMPO 3006/3010 3SM -DZ BR FM301300 VRB04KT P6SM SCT007 OVC015 FM301700 VRB04KT P6SM VCSH SCT025 OVC050 FM302100 30010KT P6SM VCSH SCT030 OVC050 FM310100 33006KT P6SM VCSH SCT025 OVC040 FM310800 03005KT P6SM VCSH OVC020
KHPN 
17nm N 
300538Z 3006/3106 02005KT P6SM OVC005 TEMPO 3006/3010 5SM -DZ BR FM301300 VRB04KT P6SM SCT009 OVC018 FM301700 VRB04KT P6SM VCSH SCT020 OVC040 FM302200 32009KT P6SM VCSH SCT030 OVC050 FM310200 35005KT P6SM VCSH OVC015 AMD NOT SKED
NOTAMs
Click for the latest NOTAMs
NOTAMs are issued by the DoD/FAA and will open in a separate window not controlled by AirNav.

 

 
 

Would you like to see your business listed on this page?

 If your business provides an interesting product or service to pilots, flight crews, aircraft, or users of the North Shore University Hospital Nr 2 Heliport, you should consider listing it here.  To start the listing process, click on the button below
 
Add a business
 

Other Pages about North Shore University Hospital Nr 2 Heliport

Update a link
 
Copyright © AirNav, LLC. All rights reserved. Privacy Policy  Contact